sensor_id;sensor_type;location;lat;lon;timestamp;temperature;humidity
34873;DHT22;21084;51.098;14.506;2023-11-21T00:01:23;3.10;99.90
34873;DHT22;21084;51.098;14.506;2023-11-21T00:03:52;3.10;99.90
34873;DHT22;21084;51.098;14.506;2023-11-21T00:06:22;3.10;99.90
34873;DHT22;21084;51.098;14.506;2023-11-21T00:08:50;3.10;99.90
34873;DHT22;21084;51.098;14.506;2023-11-21T00:11:19;3.10;99.90
34873;DHT22;21084;51.098;14.506;2023-11-21T00:13:49;3.20;99.90
34873;DHT22;21084;51.098;14.506;2023-11-21T00:16:18;3.20;99.90
34873;DHT22;21084;51.098;14.506;2023-11-21T00:18:46;3.20;99.90
34873;DHT22;21084;51.098;14.506;2023-11-21T00:21:15;3.30;99.90
34873;DHT22;21084;51.098;14.506;2023-11-21T00:23:43;3.30;99.90
34873;DHT22;21084;51.098;14.506;2023-11-21T00:26:11;3.40;99.90
34873;DHT22;21084;51.098;14.506;2023-11-21T00:28:41;3.40;99.90
34873;DHT22;21084;51.098;14.506;2023-11-21T00:31:11;3.60;99.90
34873;DHT22;21084;51.098;14.506;2023-11-21T00:33:40;3.80;99.90
34873;DHT22;21084;51.098;14.506;2023-11-21T00:36:09;3.90;99.90
34873;DHT22;21084;51.098;14.506;2023-11-21T00:38:37;4.20;99.90
34873;DHT22;21084;51.098;14.506;2023-11-21T00:41:06;4.30;99.90
34873;DHT22;21084;51.098;14.506;2023-11-21T00:43:35;4.40;99.90
34873;DHT22;21084;51.098;14.506;2023-11-21T00:46:04;4.50;99.90
34873;DHT22;21084;51.098;14.506;2023-11-21T00:48:33;4.60;99.90
34873;DHT22;21084;51.098;14.506;2023-11-21T00:51:02;4.60;99.90
34873;DHT22;21084;51.098;14.506;2023-11-21T00:53:31;4.50;99.90
34873;DHT22;21084;51.098;14.506;2023-11-21T00:55:59;4.50;99.90
34873;DHT22;21084;51.098;14.506;2023-11-21T00:58:27;4.40;99.90
34873;DHT22;21084;51.098;14.506;2023-11-21T01:00:56;4.40;99.90
34873;DHT22;21084;51.098;14.506;2023-11-21T01:03:24;4.40;99.90
34873;DHT22;21084;51.098;14.506;2023-11-21T01:05:54;4.40;99.90
34873;DHT22;21084;51.098;14.506;2023-11-21T01:08:23;4.40;99.90
34873;DHT22;21084;51.098;14.506;2023-11-21T01:10:52;4.40;99.90
34873;DHT22;21084;51.098;14.506;2023-11-21T01:13:20;4.50;99.90
34873;DHT22;21084;51.098;14.506;2023-11-21T01:15:49;4.60;99.90
34873;DHT22;21084;51.098;14.506;2023-11-21T01:18:17;4.70;99.90
34873;DHT22;21084;51.098;14.506;2023-11-21T01:20:45;4.80;99.90
34873;DHT22;21084;51.098;14.506;2023-11-21T01:23:15;4.90;99.90
34873;DHT22;21084;51.098;14.506;2023-11-21T01:25:43;4.90;99.90
34873;DHT22;21084;51.098;14.506;2023-11-21T01:28:12;5.10;99.90
34873;DHT22;21084;51.098;14.506;2023-11-21T01:30:40;5.20;99.90
34873;DHT22;21084;51.098;14.506;2023-11-21T01:33:08;5.50;99.90
34873;DHT22;21084;51.098;14.506;2023-11-21T01:35:37;5.50;99.90
34873;DHT22;21084;51.098;14.506;2023-11-21T01:38:05;5.70;99.90
34873;DHT22;21084;51.098;14.506;2023-11-21T01:40:36;5.70;99.90
34873;DHT22;21084;51.098;14.506;2023-11-21T01:43:04;5.80;99.90
34873;DHT22;21084;51.098;14.506;2023-11-21T01:45:33;6.00;99.90
34873;DHT22;21084;51.098;14.506;2023-11-21T01:48:01;6.10;99.90
34873;DHT22;21084;51.098;14.506;2023-11-21T01:50:30;6.20;99.90
34873;DHT22;21084;51.098;14.506;2023-11-21T01:52:59;6.20;99.90
34873;DHT22;21084;51.098;14.506;2023-11-21T01:55:28;6.30;99.90
34873;DHT22;21084;51.098;14.506;2023-11-21T01:57:58;6.40;99.90
34873;DHT22;21084;51.098;14.506;2023-11-21T02:00:26;6.40;99.90
34873;DHT22;21084;51.098;14.506;2023-11-21T02:02:56;6.40;99.90
34873;DHT22;21084;51.098;14.506;2023-11-21T02:05:24;6.50;99.90
34873;DHT22;21084;51.098;14.506;2023-11-21T02:07:53;6.50;99.90
34873;DHT22;21084;51.098;14.506;2023-11-21T02:10:21;6.60;99.90
34873;DHT22;21084;51.098;14.506;2023-11-21T02:12:51;6.60;99.90
34873;DHT22;21084;51.098;14.506;2023-11-21T02:15:22;6.60;99.90
34873;DHT22;21084;51.098;14.506;2023-11-21T02:17:54;6.70;99.90
34873;DHT22;21084;51.098;14.506;2023-11-21T02:20:23;6.70;99.90
34873;DHT22;21084;51.098;14.506;2023-11-21T02:22:54;6.70;99.90
34873;DHT22;21084;51.098;14.506;2023-11-21T02:25:27;6.70;99.90
34873;DHT22;21084;51.098;14.506;2023-11-21T02:27:56;6.80;99.90
34873;DHT22;21084;51.098;14.506;2023-11-21T02:30:25;6.80;99.90
34873;DHT22;21084;51.098;14.506;2023-11-21T02:32:54;6.80;99.90
34873;DHT22;21084;51.098;14.506;2023-11-21T02:35:24;6.90;99.90
34873;DHT22;21084;51.098;14.506;2023-11-21T02:37:55;6.90;99.90
34873;DHT22;21084;51.098;14.506;2023-11-21T02:40:24;6.90;99.90
34873;DHT22;21084;51.098;14.506;2023-11-21T02:42:53;6.90;99.90
34873;DHT22;21084;51.098;14.506;2023-11-21T02:45:22;6.90;99.90
34873;DHT22;21084;51.098;14.506;2023-11-21T02:47:51;6.90;99.90
34873;DHT22;21084;51.098;14.506;2023-11-21T02:50:25;6.90;99.90
34873;DHT22;21084;51.098;14.506;2023-11-21T02:52:55;6.90;99.90
34873;DHT22;21084;51.098;14.506;2023-11-21T02:55:27;6.90;99.90
34873;DHT22;21084;51.098;14.506;2023-11-21T02:57:55;6.90;99.90
34873;DHT22;21084;51.098;14.506;2023-11-21T03:00:25;6.90;99.90
34873;DHT22;21084;51.098;14.506;2023-11-21T03:02:54;6.90;99.90
34873;DHT22;21084;51.098;14.506;2023-11-21T03:05:24;6.90;99.90
34873;DHT22;21084;51.098;14.506;2023-11-21T03:07:52;6.90;99.90
34873;DHT22;21084;51.098;14.506;2023-11-21T03:10:21;6.90;99.90
34873;DHT22;21084;51.098;14.506;2023-11-21T03:12:54;6.90;99.90
34873;DHT22;21084;51.098;14.506;2023-11-21T03:15:24;6.90;99.90
34873;DHT22;21084;51.098;14.506;2023-11-21T03:17:52;6.90;99.90
34873;DHT22;21084;51.098;14.506;2023-11-21T03:20:20;6.90;99.90
34873;DHT22;21084;51.098;14.506;2023-11-21T03:22:49;6.90;99.90
34873;DHT22;21084;51.098;14.506;2023-11-21T03:25:17;6.90;99.90
34873;DHT22;21084;51.098;14.506;2023-11-21T03:27:46;6.90;99.90
34873;DHT22;21084;51.098;14.506;2023-11-21T03:30:15;6.90;99.90
34873;DHT22;21084;51.098;14.506;2023-11-21T03:32:44;7.00;99.90
34873;DHT22;21084;51.098;14.506;2023-11-21T03:35:12;7.00;99.90
34873;DHT22;21084;51.098;14.506;2023-11-21T03:37:40;7.00;99.90
34873;DHT22;21084;51.098;14.506;2023-11-21T03:40:10;7.00;99.90
34873;DHT22;21084;51.098;14.506;2023-11-21T03:42:40;7.00;99.90
34873;DHT22;21084;51.098;14.506;2023-11-21T03:45:11;7.00;99.90
34873;DHT22;21084;51.098;14.506;2023-11-21T03:47:40;7.00;99.90
34873;DHT22;21084;51.098;14.506;2023-11-21T03:50:09;7.00;99.90
34873;DHT22;21084;51.098;14.506;2023-11-21T03:52:37;7.00;99.90
34873;DHT22;21084;51.098;14.506;2023-11-21T03:55:06;7.00;99.90
34873;DHT22;21084;51.098;14.506;2023-11-21T03:57:34;7.00;99.90
34873;DHT22;21084;51.098;14.506;2023-11-21T04:00:03;7.00;99.90
34873;DHT22;21084;51.098;14.506;2023-11-21T04:02:36;7.00;99.90
34873;DHT22;21084;51.098;14.506;2023-11-21T04:05:05;7.00;99.90
34873;DHT22;21084;51.098;14.506;2023-11-21T04:07:34;7.00;99.90
34873;DHT22;21084;51.098;14.506;2023-11-21T04:10:02;7.00;99.90
34873;DHT22;21084;51.098;14.506;2023-11-21T04:12:31;7.00;99.90
34873;DHT22;21084;51.098;14.506;2023-11-21T04:14:59;7.00;99.90
34873;DHT22;21084;51.098;14.506;2023-11-21T04:17:27;7.00;99.90
34873;DHT22;21084;51.098;14.506;2023-11-21T04:19:58;7.00;99.90
34873;DHT22;21084;51.098;14.506;2023-11-21T04:22:26;7.00;99.90
34873;DHT22;21084;51.098;14.506;2023-11-21T04:24:54;7.00;99.90
34873;DHT22;21084;51.098;14.506;2023-11-21T04:27:23;7.00;99.90
34873;DHT22;21084;51.098;14.506;2023-11-21T04:29:51;7.00;99.90
34873;DHT22;21084;51.098;14.506;2023-11-21T04:32:19;7.00;99.90
34873;DHT22;21084;51.098;14.506;2023-11-21T04:34:47;7.00;99.90
34873;DHT22;21084;51.098;14.506;2023-11-21T04:37:17;7.00;99.90
34873;DHT22;21084;51.098;14.506;2023-11-21T04:39:45;7.00;99.90
34873;DHT22;21084;51.098;14.506;2023-11-21T04:42:14;7.00;99.90
34873;DHT22;21084;51.098;14.506;2023-11-21T04:44:42;7.00;99.90
34873;DHT22;21084;51.098;14.506;2023-11-21T04:47:11;7.00;99.90
34873;DHT22;21084;51.098;14.506;2023-11-21T04:49:41;7.00;99.90
34873;DHT22;21084;51.098;14.506;2023-11-21T04:52:09;7.00;99.90
34873;DHT22;21084;51.098;14.506;2023-11-21T04:54:39;7.00;99.90
34873;DHT22;21084;51.098;14.506;2023-11-21T04:57:07;7.00;99.90
34873;DHT22;21084;51.098;14.506;2023-11-21T04:59:36;7.00;99.90
34873;DHT22;21084;51.098;14.506;2023-11-21T05:02:04;7.00;99.90
34873;DHT22;21084;51.098;14.506;2023-11-21T05:04:33;7.00;99.90
34873;DHT22;21084;51.098;14.506;2023-11-21T05:07:02;7.00;99.90
34873;DHT22;21084;51.098;14.506;2023-11-21T05:09:30;7.00;99.90
34873;DHT22;21084;51.098;14.506;2023-11-21T05:12:01;7.00;99.90
34873;DHT22;21084;51.098;14.506;2023-11-21T05:14:31;7.00;99.90
34873;DHT22;21084;51.098;14.506;2023-11-21T05:16:59;7.00;99.90
34873;DHT22;21084;51.098;14.506;2023-11-21T05:19:28;6.90;99.90
34873;DHT22;21084;51.098;14.506;2023-11-21T05:21:56;7.00;99.90
34873;DHT22;21084;51.098;14.506;2023-11-21T05:24:25;7.00;99.90
34873;DHT22;21084;51.098;14.506;2023-11-21T05:26:55;7.00;99.90
34873;DHT22;21084;51.098;14.506;2023-11-21T05:29:26;7.00;99.90
34873;DHT22;21084;51.098;14.506;2023-11-21T05:31:54;7.00;99.90
34873;DHT22;21084;51.098;14.506;2023-11-21T05:34:22;7.00;99.90
34873;DHT22;21084;51.098;14.506;2023-11-21T05:36:51;7.00;99.90
34873;DHT22;21084;51.098;14.506;2023-11-21T05:39:20;7.00;99.90
34873;DHT22;21084;51.098;14.506;2023-11-21T05:41:49;6.90;99.90
34873;DHT22;21084;51.098;14.506;2023-11-21T05:44:17;6.90;99.90
34873;DHT22;21084;51.098;14.506;2023-11-21T05:46:46;6.90;99.90
34873;DHT22;21084;51.098;14.506;2023-11-21T05:49:15;6.90;99.90
34873;DHT22;21084;51.098;14.506;2023-11-21T05:51:43;6.90;99.90
34873;DHT22;21084;51.098;14.506;2023-11-21T05:54:12;6.90;99.90
34873;DHT22;21084;51.098;14.506;2023-11-21T05:56:40;6.90;99.90
34873;DHT22;21084;51.098;14.506;2023-11-21T05:59:08;6.90;99.90
34873;DHT22;21084;51.098;14.506;2023-11-21T06:01:37;6.90;99.90
34873;DHT22;21084;51.098;14.506;2023-11-21T06:04:07;6.90;99.90
34873;DHT22;21084;51.098;14.506;2023-11-21T06:06:36;6.90;99.90
34873;DHT22;21084;51.098;14.506;2023-11-21T06:09:05;6.90;99.90
34873;DHT22;21084;51.098;14.506;2023-11-21T06:11:35;6.90;99.90
34873;DHT22;21084;51.098;14.506;2023-11-21T06:14:04;6.90;99.90
34873;DHT22;21084;51.098;14.506;2023-11-21T06:16:35;6.90;99.90
34873;DHT22;21084;51.098;14.506;2023-11-21T06:19:03;6.90;99.90
34873;DHT22;21084;51.098;14.506;2023-11-21T06:21:33;6.90;99.90
34873;DHT22;21084;51.098;14.506;2023-11-21T06:24:02;6.90;99.90
34873;DHT22;21084;51.098;14.506;2023-11-21T06:26:30;6.90;99.90
34873;DHT22;21084;51.098;14.506;2023-11-21T06:28:59;6.90;99.90
34873;DHT22;21084;51.098;14.506;2023-11-21T06:31:30;6.80;99.90
34873;DHT22;21084;51.098;14.506;2023-11-21T06:33:59;6.80;99.90
34873;DHT22;21084;51.098;14.506;2023-11-21T06:36:28;6.80;99.90
34873;DHT22;21084;51.098;14.506;2023-11-21T06:38:58;6.80;99.90
34873;DHT22;21084;51.098;14.506;2023-11-21T06:41:26;6.80;99.90
34873;DHT22;21084;51.098;14.506;2023-11-21T06:43:54;6.80;99.90
34873;DHT22;21084;51.098;14.506;2023-11-21T06:46:22;6.80;99.90
34873;DHT22;21084;51.098;14.506;2023-11-21T06:48:52;6.80;99.90
34873;DHT22;21084;51.098;14.506;2023-11-21T06:51:20;6.80;99.90
34873;DHT22;21084;51.098;14.506;2023-11-21T06:53:49;6.80;99.90
34873;DHT22;21084;51.098;14.506;2023-11-21T06:56:19;6.80;99.90
34873;DHT22;21084;51.098;14.506;2023-11-21T06:58:47;6.80;99.90
34873;DHT22;21084;51.098;14.506;2023-11-21T07:01:16;6.80;99.90
34873;DHT22;21084;51.098;14.506;2023-11-21T07:03:44;6.70;99.90
34873;DHT22;21084;51.098;14.506;2023-11-21T07:06:13;6.70;99.90
34873;DHT22;21084;51.098;14.506;2023-11-21T07:08:43;6.70;99.90
34873;DHT22;21084;51.098;14.506;2023-11-21T07:11:12;6.70;99.90
34873;DHT22;21084;51.098;14.506;2023-11-21T07:13:41;6.80;99.90
34873;DHT22;21084;51.098;14.506;2023-11-21T07:16:10;6.80;99.90
34873;DHT22;21084;51.098;14.506;2023-11-21T07:18:39;6.80;99.90
34873;DHT22;21084;51.098;14.506;2023-11-21T07:21:07;6.80;99.90
34873;DHT22;21084;51.098;14.506;2023-11-21T07:23:38;6.90;99.90
34873;DHT22;21084;51.098;14.506;2023-11-21T07:26:07;6.90;99.90
34873;DHT22;21084;51.098;14.506;2023-11-21T07:28:36;7.00;99.90
34873;DHT22;21084;51.098;14.506;2023-11-21T07:31:06;7.00;99.90
34873;DHT22;21084;51.098;14.506;2023-11-21T07:33:34;7.10;99.90
34873;DHT22;21084;51.098;14.506;2023-11-21T07:36:03;7.10;99.90
34873;DHT22;21084;51.098;14.506;2023-11-21T07:38:31;7.20;99.90
34873;DHT22;21084;51.098;14.506;2023-11-21T07:41:00;7.20;99.90
34873;DHT22;21084;51.098;14.506;2023-11-21T07:43:29;7.20;99.90
34873;DHT22;21084;51.098;14.506;2023-11-21T07:46:02;7.20;99.90
34873;DHT22;21084;51.098;14.506;2023-11-21T07:48:32;7.10;99.90
34873;DHT22;21084;51.098;14.506;2023-11-21T07:51:01;7.10;99.90
34873;DHT22;21084;51.098;14.506;2023-11-21T07:53:30;7.20;99.90
34873;DHT22;21084;51.098;14.506;2023-11-21T07:55:58;7.20;99.90
34873;DHT22;21084;51.098;14.506;2023-11-21T07:58:27;7.30;99.90
34873;DHT22;21084;51.098;14.506;2023-11-21T08:00:55;7.30;99.90
34873;DHT22;21084;51.098;14.506;2023-11-21T08:03:24;7.20;99.90
34873;DHT22;21084;51.098;14.506;2023-11-21T08:05:55;7.20;99.90
34873;DHT22;21084;51.098;14.506;2023-11-21T08:08:24;7.20;99.90
34873;DHT22;21084;51.098;14.506;2023-11-21T08:10:52;7.30;99.90
34873;DHT22;21084;51.098;14.506;2023-11-21T08:13:24;7.30;99.90
34873;DHT22;21084;51.098;14.506;2023-11-21T08:15:53;7.20;99.90
34873;DHT22;21084;51.098;14.506;2023-11-21T08:18:22;7.20;99.90
34873;DHT22;21084;51.098;14.506;2023-11-21T08:20:51;7.20;99.90
34873;DHT22;21084;51.098;14.506;2023-11-21T08:23:23;7.30;99.90
34873;DHT22;21084;51.098;14.506;2023-11-21T08:25:52;7.30;99.90
34873;DHT22;21084;51.098;14.506;2023-11-21T08:28:21;7.30;99.90
34873;DHT22;21084;51.098;14.506;2023-11-21T08:30:50;7.30;99.90
34873;DHT22;21084;51.098;14.506;2023-11-21T08:33:18;7.30;99.90
34873;DHT22;21084;51.098;14.506;2023-11-21T08:35:47;7.20;99.90
34873;DHT22;21084;51.098;14.506;2023-11-21T08:38:15;7.20;99.90
34873;DHT22;21084;51.098;14.506;2023-11-21T08:40:46;7.20;99.90
34873;DHT22;21084;51.098;14.506;2023-11-21T08:43:14;7.10;99.90
34873;DHT22;21084;51.098;14.506;2023-11-21T08:45:43;7.10;99.90
34873;DHT22;21084;51.098;14.506;2023-11-21T08:48:11;7.20;99.90
34873;DHT22;21084;51.098;14.506;2023-11-21T08:50:40;7.20;99.90
34873;DHT22;21084;51.098;14.506;2023-11-21T08:53:08;7.30;99.90
34873;DHT22;21084;51.098;14.506;2023-11-21T08:55:38;7.30;99.90
34873;DHT22;21084;51.098;14.506;2023-11-21T08:58:07;7.30;99.90
34873;DHT22;21084;51.098;14.506;2023-11-21T09:00:35;7.30;99.90
34873;DHT22;21084;51.098;14.506;2023-11-21T09:03:05;7.20;99.90
34873;DHT22;21084;51.098;14.506;2023-11-21T09:05:37;7.30;99.90
34873;DHT22;21084;51.098;14.506;2023-11-21T09:08:05;7.30;99.90
34873;DHT22;21084;51.098;14.506;2023-11-21T09:10:34;7.30;99.90
34873;DHT22;21084;51.098;14.506;2023-11-21T09:13:04;7.30;99.90
34873;DHT22;21084;51.098;14.506;2023-11-21T09:15:34;7.10;99.90
34873;DHT22;21084;51.098;14.506;2023-11-21T09:18:02;7.20;99.90
34873;DHT22;21084;51.098;14.506;2023-11-21T09:20:32;7.20;99.90
34873;DHT22;21084;51.098;14.506;2023-11-21T09:23:00;7.30;99.90
34873;DHT22;21084;51.098;14.506;2023-11-21T09:25:28;7.30;99.90
34873;DHT22;21084;51.098;14.506;2023-11-21T09:27:57;7.30;99.90
34873;DHT22;21084;51.098;14.506;2023-11-21T09:30:25;7.30;99.90
34873;DHT22;21084;51.098;14.506;2023-11-21T09:32:55;7.30;99.90
34873;DHT22;21084;51.098;14.506;2023-11-21T09:35:25;7.30;99.90
34873;DHT22;21084;51.098;14.506;2023-11-21T09:37:54;7.40;99.90
34873;DHT22;21084;51.098;14.506;2023-11-21T09:40:23;7.50;99.90
34873;DHT22;21084;51.098;14.506;2023-11-21T09:42:53;7.40;99.90
34873;DHT22;21084;51.098;14.506;2023-11-21T09:45:27;7.30;99.90
34873;DHT22;21084;51.098;14.506;2023-11-21T09:47:57;7.30;99.90
34873;DHT22;21084;51.098;14.506;2023-11-21T09:50:25;7.30;99.90
34873;DHT22;21084;51.098;14.506;2023-11-21T09:52:55;7.20;99.90
34873;DHT22;21084;51.098;14.506;2023-11-21T09:55:25;7.20;99.90
34873;DHT22;21084;51.098;14.506;2023-11-21T09:57:56;7.20;99.90
34873;DHT22;21084;51.098;14.506;2023-11-21T10:00:24;7.20;99.90
34873;DHT22;21084;51.098;14.506;2023-11-21T10:02:54;7.00;99.90
34873;DHT22;21084;51.098;14.506;2023-11-21T10:05:25;6.90;99.90
34873;DHT22;21084;51.098;14.506;2023-11-21T10:07:55;7.00;99.90
34873;DHT22;21084;51.098;14.506;2023-11-21T10:10:25;7.00;99.90
34873;DHT22;21084;51.098;14.506;2023-11-21T10:12:56;6.70;99.90
34873;DHT22;21084;51.098;14.506;2023-11-21T10:15:25;6.70;99.90
34873;DHT22;21084;51.098;14.506;2023-11-21T10:17:54;6.60;99.90
34873;DHT22;21084;51.098;14.506;2023-11-21T10:20:23;6.40;99.90
34873;DHT22;21084;51.098;14.506;2023-11-21T10:22:53;6.30;99.90
34873;DHT22;21084;51.098;14.506;2023-11-21T10:25:23;6.20;99.90
34873;DHT22;21084;51.098;14.506;2023-11-21T10:27:56;6.10;99.90
34873;DHT22;21084;51.098;14.506;2023-11-21T10:30:28;6.10;99.90
34873;DHT22;21084;51.098;14.506;2023-11-21T10:32:58;6.10;99.90
34873;DHT22;21084;51.098;14.506;2023-11-21T10:35:38;5.90;99.90
34873;DHT22;21084;51.098;14.506;2023-11-21T10:38:07;5.90;99.90
34873;DHT22;21084;51.098;14.506;2023-11-21T10:40:37;5.90;99.90
34873;DHT22;21084;51.098;14.506;2023-11-21T10:43:06;5.80;99.90
34873;DHT22;21084;51.098;14.506;2023-11-21T10:45:36;5.80;99.90
34873;DHT22;21084;51.098;14.506;2023-11-21T10:48:06;5.80;99.90
34873;DHT22;21084;51.098;14.506;2023-11-21T10:50:36;5.80;99.90
34873;DHT22;21084;51.098;14.506;2023-11-21T10:53:04;5.80;99.90
34873;DHT22;21084;51.098;14.506;2023-11-21T10:55:35;5.80;99.90
34873;DHT22;21084;51.098;14.506;2023-11-21T10:58:03;5.80;99.90
34873;DHT22;21084;51.098;14.506;2023-11-21T11:00:33;5.80;99.90
34873;DHT22;21084;51.098;14.506;2023-11-21T11:03:01;5.80;99.90
34873;DHT22;21084;51.098;14.506;2023-11-21T11:05:30;5.80;99.90
34873;DHT22;21084;51.098;14.506;2023-11-21T11:08:00;5.80;99.90
34873;DHT22;21084;51.098;14.506;2023-11-21T11:10:30;5.70;99.90
34873;DHT22;21084;51.098;14.506;2023-11-21T11:13:01;5.70;99.90
34873;DHT22;21084;51.098;14.506;2023-11-21T11:15:29;5.50;99.90
34873;DHT22;21084;51.098;14.506;2023-11-21T11:17:58;5.50;99.90
34873;DHT22;21084;51.098;14.506;2023-11-21T11:20:29;5.30;99.90
34873;DHT22;21084;51.098;14.506;2023-11-21T11:23:07;5.20;99.90
34873;DHT22;21084;51.098;14.506;2023-11-21T11:25:49;5.20;99.90
34873;DHT22;21084;51.098;14.506;2023-11-21T11:28:21;5.10;99.90
34873;DHT22;21084;51.098;14.506;2023-11-21T11:30:58;5.10;99.90
34873;DHT22;21084;51.098;14.506;2023-11-21T11:33:33;5.10;99.90
34873;DHT22;21084;51.098;14.506;2023-11-21T11:36:06;5.20;99.90
34873;DHT22;21084;51.098;14.506;2023-11-21T11:38:34;5.30;99.90
34873;DHT22;21084;51.098;14.506;2023-11-21T11:41:03;5.20;99.90
34873;DHT22;21084;51.098;14.506;2023-11-21T11:43:33;5.10;99.90
34873;DHT22;21084;51.098;14.506;2023-11-21T11:46:11;5.00;99.90
34873;DHT22;21084;51.098;14.506;2023-11-21T11:48:41;5.00;99.90
34873;DHT22;21084;51.098;14.506;2023-11-21T11:51:12;5.00;99.90
34873;DHT22;21084;51.098;14.506;2023-11-21T11:53:44;4.90;99.90
34873;DHT22;21084;51.098;14.506;2023-11-21T11:56:21;4.90;99.90
34873;DHT22;21084;51.098;14.506;2023-11-21T11:58:52;4.90;99.90
34873;DHT22;21084;51.098;14.506;2023-11-21T12:01:21;4.80;99.90
34873;DHT22;21084;51.098;14.506;2023-11-21T12:06:33;4.90;99.90
34873;DHT22;21084;51.098;14.506;2023-11-21T12:09:01;4.90;99.90
34873;DHT22;21084;51.098;14.506;2023-11-21T12:11:32;4.90;99.90
34873;DHT22;21084;51.098;14.506;2023-11-21T12:14:03;5.00;99.90
34873;DHT22;21084;51.098;14.506;2023-11-21T12:16:33;4.90;99.90
34873;DHT22;21084;51.098;14.506;2023-11-21T12:19:02;4.80;99.90
34873;DHT22;21084;51.098;14.506;2023-11-21T12:21:30;4.80;99.90
34873;DHT22;21084;51.098;14.506;2023-11-21T12:23:59;4.80;99.90
34873;DHT22;21084;51.098;14.506;2023-11-21T12:26:27;4.80;99.90
34873;DHT22;21084;51.098;14.506;2023-11-21T12:28:56;4.70;99.90
34873;DHT22;21084;51.098;14.506;2023-11-21T12:31:25;4.70;99.90
34873;DHT22;21084;51.098;14.506;2023-11-21T12:33:54;4.70;99.90
34873;DHT22;21084;51.098;14.506;2023-11-21T12:36:23;4.60;99.90
34873;DHT22;21084;51.098;14.506;2023-11-21T12:38:52;4.50;99.90
34873;DHT22;21084;51.098;14.506;2023-11-21T12:41:20;4.50;99.90
34873;DHT22;21084;51.098;14.506;2023-11-21T12:43:49;4.50;99.90
34873;DHT22;21084;51.098;14.506;2023-11-21T12:46:17;4.50;99.90
34873;DHT22;21084;51.098;14.506;2023-11-21T12:48:48;4.40;99.90
34873;DHT22;21084;51.098;14.506;2023-11-21T12:51:16;4.40;99.90
34873;DHT22;21084;51.098;14.506;2023-11-21T12:53:45;4.40;99.90
34873;DHT22;21084;51.098;14.506;2023-11-21T12:56:15;4.50;99.90
34873;DHT22;21084;51.098;14.506;2023-11-21T12:58:44;4.50;99.90
34873;DHT22;21084;51.098;14.506;2023-11-21T13:01:14;4.50;99.90
34873;DHT22;21084;51.098;14.506;2023-11-21T13:04:10;4.50;99.90
34873;DHT22;21084;51.098;14.506;2023-11-21T13:06:39;4.50;99.90
34873;DHT22;21084;51.098;14.506;2023-11-21T13:09:08;4.50;99.90
34873;DHT22;21084;51.098;14.506;2023-11-21T13:11:37;4.50;99.90
34873;DHT22;21084;51.098;14.506;2023-11-21T13:14:07;4.50;99.90
34873;DHT22;21084;51.098;14.506;2023-11-21T13:16:38;4.30;99.90
34873;DHT22;21084;51.098;14.506;2023-11-21T13:19:14;4.20;99.90
34873;DHT22;21084;51.098;14.506;2023-11-21T13:21:43;4.20;99.90
34873;DHT22;21084;51.098;14.506;2023-11-21T13:24:11;4.20;99.90
34873;DHT22;21084;51.098;14.506;2023-11-21T13:26:39;4.10;99.90
34873;DHT22;21084;51.098;14.506;2023-11-21T13:29:08;4.10;99.90
34873;DHT22;21084;51.098;14.506;2023-11-21T13:31:40;4.10;99.90
34873;DHT22;21084;51.098;14.506;2023-11-21T13:34:09;4.10;99.90
34873;DHT22;21084;51.098;14.506;2023-11-21T13:36:48;4.10;99.90
34873;DHT22;21084;51.098;14.506;2023-11-21T13:39:25;4.00;99.90
34873;DHT22;21084;51.098;14.506;2023-11-21T13:41:55;3.90;99.90
34873;DHT22;21084;51.098;14.506;2023-11-21T13:44:24;3.90;99.90
34873;DHT22;21084;51.098;14.506;2023-11-21T13:47:01;3.90;99.90
34873;DHT22;21084;51.098;14.506;2023-11-21T13:49:29;3.80;99.90
34873;DHT22;21084;51.098;14.506;2023-11-21T13:52:04;3.70;99.90
34873;DHT22;21084;51.098;14.506;2023-11-21T13:54:34;3.60;99.90
34873;DHT22;21084;51.098;14.506;2023-11-21T13:57:03;3.60;99.90
34873;DHT22;21084;51.098;14.506;2023-11-21T13:59:32;3.60;99.90
34873;DHT22;21084;51.098;14.506;2023-11-21T14:02:00;3.60;99.90
34873;DHT22;21084;51.098;14.506;2023-11-21T14:04:44;3.60;99.90
34873;DHT22;21084;51.098;14.506;2023-11-21T14:07:24;3.60;99.90
34873;DHT22;21084;51.098;14.506;2023-11-21T14:10:00;3.50;99.90
34873;DHT22;21084;51.098;14.506;2023-11-21T14:12:28;3.50;99.90
34873;DHT22;21084;51.098;14.506;2023-11-21T14:15:05;3.50;99.90
34873;DHT22;21084;51.098;14.506;2023-11-21T14:17:36;3.50;99.90
34873;DHT22;21084;51.098;14.506;2023-11-21T14:20:08;3.50;99.90
34873;DHT22;21084;51.098;14.506;2023-11-21T14:22:45;3.50;99.90
34873;DHT22;21084;51.098;14.506;2023-11-21T14:25:14;3.50;99.90
34873;DHT22;21084;51.098;14.506;2023-11-21T14:27:45;3.50;99.90
34873;DHT22;21084;51.098;14.506;2023-11-21T14:30:13;3.50;99.90
34873;DHT22;21084;51.098;14.506;2023-11-21T14:32:41;3.40;99.90
34873;DHT22;21084;51.098;14.506;2023-11-21T14:35:10;3.40;99.90
34873;DHT22;21084;51.098;14.506;2023-11-21T14:37:38;3.40;99.90
34873;DHT22;21084;51.098;14.506;2023-11-21T14:40:10;3.40;99.90
34873;DHT22;21084;51.098;14.506;2023-11-21T14:42:38;3.40;99.90
34873;DHT22;21084;51.098;14.506;2023-11-21T14:45:09;3.30;99.90
34873;DHT22;21084;51.098;14.506;2023-11-21T14:47:39;3.20;99.90
34873;DHT22;21084;51.098;14.506;2023-11-21T14:50:12;3.30;99.90
34873;DHT22;21084;51.098;14.506;2023-11-21T14:52:54;3.20;99.90
34873;DHT22;21084;51.098;14.506;2023-11-21T14:55:28;3.30;99.90
34873;DHT22;21084;51.098;14.506;2023-11-21T14:57:59;3.20;99.90
34873;DHT22;21084;51.098;14.506;2023-11-21T15:00:31;3.30;99.90
34873;DHT22;21084;51.098;14.506;2023-11-21T15:03:13;3.30;99.90
34873;DHT22;21084;51.098;14.506;2023-11-21T15:06:05;3.30;99.90
34873;DHT22;21084;51.098;14.506;2023-11-21T15:08:49;3.20;99.90
34873;DHT22;21084;51.098;14.506;2023-11-21T15:11:27;3.20;99.90
34873;DHT22;21084;51.098;14.506;2023-11-21T15:13:58;3.20;99.90
34873;DHT22;21084;51.098;14.506;2023-11-21T15:16:27;3.20;99.90
34873;DHT22;21084;51.098;14.506;2023-11-21T15:18:55;3.20;99.90
34873;DHT22;21084;51.098;14.506;2023-11-21T15:21:24;3.20;99.90
34873;DHT22;21084;51.098;14.506;2023-11-21T15:23:52;3.20;99.90
34873;DHT22;21084;51.098;14.506;2023-11-21T15:26:20;3.20;99.90
34873;DHT22;21084;51.098;14.506;2023-11-21T15:28:50;3.10;99.90
34873;DHT22;21084;51.098;14.506;2023-11-21T15:31:20;3.20;99.90
34873;DHT22;21084;51.098;14.506;2023-11-21T15:33:52;3.20;99.90
34873;DHT22;21084;51.098;14.506;2023-11-21T15:36:21;3.20;99.90
34873;DHT22;21084;51.098;14.506;2023-11-21T15:38:49;3.20;99.90
34873;DHT22;21084;51.098;14.506;2023-11-21T15:41:18;3.20;99.90
34873;DHT22;21084;51.098;14.506;2023-11-21T15:43:46;3.10;99.90
34873;DHT22;21084;51.098;14.506;2023-11-21T15:46:17;3.10;99.90
34873;DHT22;21084;51.098;14.506;2023-11-21T15:48:46;3.10;99.90